Blackbird Creek Townsend DE USA current weather conditions

sailwx.info

Wind from 124 at 5 knots gusting 8

Air temperature 8.8° C
Dewpoint 8.8° C

Last reported at 2020-Jan-25 12:00 UTC.
Time now 2020-Jan-25 12:21 UTC

Location: N 39°24' W 075°38'.
View on Google Maps.

See reports from other nearby stations

  
Tides and Currents Weather Stations Pressure Air Temp Water Temp Dewpoint Dewpoint Depression Visibility Wind Speed Wind Dir Waves Ship Positions
date/time (UTC)wind fromknots sea level pressurealtimeterstation pressurevisibilityair tempwater tempwave heightnotes
2020-Jan-25 12:00 124 5 gusting 8 8.8
2020-Jan-25 11:55 120 8 gusting 13 8.9
2020-Jan-25 11:50 114 7 gusting 12 8.9
2020-Jan-25 11:45 119 10 gusting 16 8.9
2020-Jan-25 11:40 109 8 gusting 13 8.9
2020-Jan-25 11:35 115 7 gusting 11 8.9
2020-Jan-25 11:30 116 8 gusting 13 9.0
2020-Jan-25 11:25 108 9 gusting 13 9.0
2020-Jan-25 11:20 112 8 gusting 14 9.0
2020-Jan-25 11:15 112 8 gusting 14 9.0
2020-Jan-25 11:10 108 7 gusting 15 8.9
2020-Jan-25 11:05 101 10 gusting 15 8.9
2020-Jan-25 11:00 104 6 gusting 11 8.8
2020-Jan-25 10:55 105 8 gusting 14 8.8
2020-Jan-25 10:50 101 9 gusting 13 8.8
2020-Jan-25 10:45 122 7 gusting 14 8.8
2020-Jan-25 10:40 114 7 gusting 12 8.7
2020-Jan-25 10:35 095 7 gusting 14 8.6
2020-Jan-25 10:30 097 7 gusting 12 8.5
2020-Jan-25 10:25 094 5 gusting 8 8.4
2020-Jan-25 10:20 088 4 gusting 6 8.3
2020-Jan-25 10:15 091 4 gusting 8 8.4
2020-Jan-25 10:10 088 5 gusting 9 8.3
2020-Jan-25 10:05 081 5 gusting 7 8.3
2020-Jan-25 10:00 086 4 gusting 7 8.3
2020-Jan-25 09:55 088 6 gusting 9 8.2
2020-Jan-25 09:50 090 5 gusting 10 8.2
2020-Jan-25 09:45 094 5 gusting 10 8.1
2020-Jan-25 09:40 085 7 gusting 10 8.0
2020-Jan-25 09:35 076 5 gusting 9 7.8
2020-Jan-25 09:30 084 4 gusting 6 7.8
2020-Jan-25 09:25 081 5 gusting 8 7.8
2020-Jan-25 09:20 088 5 gusting 9 7.7
2020-Jan-25 09:15 088 4 gusting 7 7.6
2020-Jan-25 09:10 079 5 gusting 7 7.5
2020-Jan-25 09:05 076 5 gusting 8 7.5
2020-Jan-25 09:00 077 4 gusting 8 7.4
2020-Jan-25 08:55 071 4 gusting 8 7.3
2020-Jan-25 08:50 082 3 gusting 5 7.3
2020-Jan-25 08:45 074 3 gusting 5 7.4
2020-Jan-25 08:40 073 2 gusting 4 7.4
2020-Jan-25 08:35 080 2 gusting 3 7.5
2020-Jan-25 08:30 074 2 gusting 3 7.5
2020-Jan-25 08:25 051 2 gusting 3 7.6
2020-Jan-25 08:20 107 1 gusting 3 7.7
2020-Jan-25 08:15 075 2 gusting 4 7.6
2020-Jan-25 08:10 070 3 gusting 5 7.6
2020-Jan-25 08:05 075 3 gusting 5 7.7
2020-Jan-25 08:00 075 4 gusting 6 7.8
2020-Jan-25 07:55 069 3 gusting 6 7.8
2020-Jan-25 07:50 077 4 gusting 9 7.8
2020-Jan-25 07:45 079 4 gusting 6 7.8
2020-Jan-25 07:40 077 4 gusting 7 7.8
2020-Jan-25 07:35 079 4 gusting 7 7.8
2020-Jan-25 07:30 082 5 gusting 8 7.8
2020-Jan-25 07:25 082 4 gusting 7 7.9
2020-Jan-25 07:20 084 5 gusting 7 7.8
2020-Jan-25 07:15 085 6 gusting 9 7.9
2020-Jan-25 07:10 089 5 gusting 9 7.9
2020-Jan-25 07:05 085 7 gusting 9 7.9
2020-Jan-25 07:00 087 6 gusting 10 7.9
2020-Jan-25 06:55 088 5 gusting 9 7.8
2020-Jan-25 06:50 087 5 gusting 8 7.8
2020-Jan-25 06:45 090 6 gusting 10 7.8
2020-Jan-25 06:40 083 5 gusting 8 7.8
2020-Jan-25 06:35 092 6 gusting 10 7.8
2020-Jan-25 06:30 099 5 gusting 8 7.7
2020-Jan-25 06:25 093 6 gusting 10 7.6
2020-Jan-25 06:20 085 5 gusting 10 7.7
2020-Jan-25 06:15 089 6 gusting 10 7.7
2020-Jan-25 06:10 089 7 gusting 11 7.8
2020-Jan-25 06:05 092 6 gusting 11 7.7
2020-Jan-25 06:00 094 6 gusting 12 7.7
2020-Jan-25 05:55 094 7 gusting 11 7.7
2020-Jan-25 05:50 095 6 gusting 11 7.6
2020-Jan-25 05:45 094 6 gusting 10 7.5
2020-Jan-25 05:40 090 6 gusting 10 7.5
2020-Jan-25 05:35 092 7 gusting 13 7.5
2020-Jan-25 05:30 098 7 gusting 11 7.5
2020-Jan-25 05:25 104 6 gusting 12 7.4
2020-Jan-25 05:20 102 6 gusting 10 7.4
2020-Jan-25 05:15 090 8 gusting 12 7.4
2020-Jan-25 05:10 099 8 gusting 14 7.3
2020-Jan-25 05:05 095 7 gusting 12 7.2
2020-Jan-25 05:00 093 7 gusting 11 7.2
2020-Jan-25 04:55 092 7 gusting 11 7.1
2020-Jan-25 04:50 091 5 gusting 7 6.9
2020-Jan-25 04:45 085 7 gusting 9 6.9
2020-Jan-25 04:40 083 4 gusting 7 6.7
2020-Jan-25 04:35 087 5 gusting 8 6.7
2020-Jan-25 04:30 083 5 gusting 7 6.6
2020-Jan-25 04:25 082 4 gusting 7 6.6
2020-Jan-25 04:20 085 5 gusting 9 6.6
2020-Jan-25 04:15 078 5 gusting 8 6.5
2020-Jan-25 04:10 082 4 gusting 8 6.5
2020-Jan-25 04:05 080 4 gusting 7 6.6
2020-Jan-25 04:00 085 4 gusting 7 6.7
2020-Jan-25 03:55 081 5 gusting 7 6.6
2020-Jan-25 03:50 085 4 gusting 7 6.6
2020-Jan-25 03:45 081 5 gusting 7 6.6
2020-Jan-25 03:40 085 4 gusting 6 6.5
2020-Jan-25 03:35 085 3 gusting 5 6.5
2020-Jan-25 03:30 079 4 gusting 8 6.5
2020-Jan-25 03:25 080 4 gusting 7 6.6
2020-Jan-25 03:20 084 5 gusting 9 6.6
2020-Jan-25 03:15 089 4 gusting 7 6.6
2020-Jan-25 03:10 091 5 gusting 8 6.6
2020-Jan-25 03:05 093 6 gusting 8 6.7
2020-Jan-25 03:00 090 4 gusting 7 6.6
2020-Jan-25 02:55 091 4 gusting 7 6.7
2020-Jan-25 02:50 086 4 gusting 8 6.7
2020-Jan-25 02:45 088 4 gusting 7 6.7
2020-Jan-25 02:40 092 5 gusting 8 6.7
2020-Jan-25 02:35 087 5 gusting 8 6.8
2020-Jan-25 02:30 090 6 gusting 9 6.8
2020-Jan-25 02:25 091 5 gusting 8 6.9
2020-Jan-25 02:20 094 6 gusting 8 7.0
2020-Jan-25 02:15 088 6 gusting 9 7.0
2020-Jan-25 02:10 092 6 gusting 8 6.9
2020-Jan-25 02:05 091 4 gusting 6 6.8
2020-Jan-25 02:00 087 4 gusting 6 6.9
2020-Jan-25 01:55 089 5 gusting 7 7.1
2020-Jan-25 01:50 087 4 gusting 8 7.0
2020-Jan-25 01:45 089 5 gusting 9 7.2
2020-Jan-25 01:40 091 5 gusting 7 7.2
2020-Jan-25 01:35 089 4 gusting 7 7.2
2020-Jan-25 01:30 089 6 gusting 10 7.3
2020-Jan-25 01:25 087 5 gusting 9 7.3
2020-Jan-25 01:20 090 5 gusting 8 7.3
2020-Jan-25 01:15 086 6 gusting 8 7.5
2020-Jan-25 01:10 089 5 gusting 9 7.5
2020-Jan-25 01:05 092 5 gusting 8 7.6
2020-Jan-25 01:00 092 5 gusting 8 7.7
2020-Jan-25 00:55 088 6 gusting 9 7.7
2020-Jan-25 00:50 088 5 gusting 7 7.7
2020-Jan-25 00:45 090 6 gusting 11 7.8
2020-Jan-25 00:40 088 6 gusting 11 7.8
2020-Jan-25 00:35 085 5 gusting 7 7.9
2020-Jan-25 00:30 087 6 gusting 9 8.0
2020-Jan-25 00:25 091 5 gusting 8 8.0
2020-Jan-25 00:20 097 6 gusting 11 8.1
2020-Jan-25 00:15 089 7 gusting 10 8.2
2020-Jan-25 00:10 093 6 gusting 10 8.2
2020-Jan-25 00:05 095 5 gusting 10 8.1
2020-Jan-25 00:00 092 6 gusting 9 8.2
2020-Jan-24 23:55 089 5 gusting 7 8.3
2020-Jan-24 23:50 097 5 gusting 9 8.4
2020-Jan-24 23:45 091 5 gusting 8 8.5
2020-Jan-24 23:40 090 6 gusting 9 8.6
2020-Jan-24 23:35 093 4 gusting 7 8.6
2020-Jan-24 23:30 096 5 gusting 8 8.7
2020-Jan-24 23:25 095 5 gusting 8 8.8
2020-Jan-24 23:20 102 6 gusting 11 8.9
2020-Jan-24 23:15 101 6 gusting 11 8.9
2020-Jan-24 23:10 094 6 gusting 10 9.0
2020-Jan-24 23:05 106 6 gusting 9 9.1
2020-Jan-24 23:00 104 7 gusting 10 9.2
2020-Jan-24 22:55 103 8 gusting 13 9.2
2020-Jan-24 22:50 105 7 gusting 12 9.3
2020-Jan-24 22:45 101 9 gusting 14 9.2
2020-Jan-24 22:40 097 8 gusting 13 9.2
2020-Jan-24 22:35 095 7 gusting 10 9.3
2020-Jan-24 22:30 102 6 gusting 10 9.3
2020-Jan-24 22:25 105 6 gusting 9 9.5
2020-Jan-24 22:20 108 8 gusting 11 9.7
2020-Jan-24 22:15 113 8 gusting 12 9.8
2020-Jan-24 22:10 102 8 gusting 12 10.0
2020-Jan-24 22:05 102 6 gusting 10 10.0
2020-Jan-24 22:00 109 6 gusting 10 10.0
2020-Jan-24 21:55 112 7 gusting 10 10.1
2020-Jan-24 21:50 116 7 gusting 11 10.0
2020-Jan-24 21:45 115 7 gusting 10 10.0
2020-Jan-24 21:40 116 6 gusting 8 10.0
2020-Jan-24 21:35 119 8 gusting 12 10.1
2020-Jan-24 21:30 113 7 gusting 10 10.3
2020-Jan-24 21:25 118 6 gusting 9 10.4
2020-Jan-24 21:20 120 7 gusting 10 10.5
2020-Jan-24 21:15 123 8 gusting 11 10.5
2020-Jan-24 21:10 120 7 gusting 11 10.5
2020-Jan-24 21:05 112 8 gusting 12 10.6
2020-Jan-24 21:00 118 7 gusting 9 10.6
2020-Jan-24 20:55 118 8 gusting 10 10.7
2020-Jan-24 20:50 117 8 gusting 11 10.9
2020-Jan-24 20:45 117 7 gusting 10 11.1
2020-Jan-24 20:40 118 8 gusting 11 11.2
2020-Jan-24 20:35 123 8 gusting 12 11.3
2020-Jan-24 20:30 122 9 gusting 12 11.4
2020-Jan-24 20:25 119 9 gusting 13 11.3
2020-Jan-24 20:20 114 11 gusting 14 11.2
2020-Jan-24 20:15 110 9 gusting 15 11.3
2020-Jan-24 20:10 114 9 gusting 13 11.3
2020-Jan-24 20:05 116 9 gusting 12 11.3
2020-Jan-24 20:00 122 11 gusting 15 11.5
2020-Jan-24 19:55 119 10 gusting 13 11.7
2020-Jan-24 19:50 113 10 gusting 15 11.7
2020-Jan-24 19:45 116 8 gusting 13 11.6
2020-Jan-24 19:40 112 10 gusting 14 11.3
2020-Jan-24 19:35 109 9 gusting 12 11.4
2020-Jan-24 19:30 115 9 gusting 14 11.4
2020-Jan-24 19:25 119 8 gusting 12 11.4
2020-Jan-24 19:20 119 8 gusting 11 11.3
2020-Jan-24 19:15 111 8 gusting 14 11.2
2020-Jan-24 19:10 129 10 gusting 15 11.4
2020-Jan-24 19:05 125 10 gusting 13 11.3
2020-Jan-24 19:00 113 9 gusting 12 11.2
2020-Jan-24 18:55 120 8 gusting 12 11.1
2020-Jan-24 18:50 123 8 gusting 12 11.1
2020-Jan-24 18:45 111 9 gusting 12 11.3
2020-Jan-24 18:40 116 7 gusting 10 11.4
2020-Jan-24 18:35 111 7 gusting 11 11.1
2020-Jan-24 18:30 113 8 gusting 12 10.9
2020-Jan-24 18:25 126 8 gusting 11 11.0
2020-Jan-24 18:20 112 8 gusting 12 10.9
2020-Jan-24 18:15 120 11 gusting 15 10.9
2020-Jan-24 18:10 124 9 gusting 14 10.9
2020-Jan-24 18:05 122 11 gusting 17 11.0
2020-Jan-24 18:00 122 10 gusting 13 11.0
2020-Jan-24 17:55 127 9 gusting 13 10.9
2020-Jan-24 17:50 123 7 gusting 12 10.8
2020-Jan-24 17:45 119 7 gusting 10 10.6
2020-Jan-24 17:40 124 8 gusting 11 10.4
2020-Jan-24 17:35 116 8 gusting 12 10.2
2020-Jan-24 17:30 119 9 gusting 14 10.2
2020-Jan-24 17:25 113 8 gusting 14 10.1
2020-Jan-24 17:20 115 8 gusting 13 10.2
2020-Jan-24 17:15 118 6 gusting 10 10.5
2020-Jan-24 17:10 114 7 gusting 10 10.4
2020-Jan-24 17:05 121 6 gusting 10 10.5
2020-Jan-24 17:00 119 6 gusting 9 10.3
2020-Jan-24 16:55 112 7 gusting 13 10.1
2020-Jan-24 16:50 114 6 gusting 11 10.2
2020-Jan-24 16:45 121 8 gusting 13 10.1
2020-Jan-24 16:40 111 7 gusting 12 9.9
2020-Jan-24 16:35 111 8 gusting 12 10.0
2020-Jan-24 16:30 104 7 gusting 13 10.0
2020-Jan-24 16:25 114 9 gusting 12 9.8
2020-Jan-24 16:20 122 8 gusting 14 10.1
2020-Jan-24 16:15 104 5 gusting 7 9.9
2020-Jan-24 16:10 092 5 gusting 7 9.4
2020-Jan-24 16:05 085 5 gusting 8 9.0
2020-Jan-24 16:00 084 5 gusting 8 8.9
2020-Jan-24 15:55 085 4 gusting 7 8.4
2020-Jan-24 15:50 093 3 gusting 6 8.2
2020-Jan-24 15:45 083 4 gusting 7 7.5
2020-Jan-24 15:40 093 4 gusting 7 7.1
2020-Jan-24 15:35 095 5 gusting 7 6.6
2020-Jan-24 15:30 097 5 gusting 7 6.3
2020-Jan-24 15:25 094 4 gusting 6 6.0
2020-Jan-24 15:20 096 4 gusting 6 5.7
2020-Jan-24 15:15 085 4 gusting 6 5.5
2020-Jan-24 15:10 082 3 gusting 5 5.3
2020-Jan-24 15:05 082 4 gusting 6 5.0
2020-Jan-24 15:00 078 3 gusting 6 5.0
2020-Jan-24 14:55 067 2 gusting 4 5.0
2020-Jan-24 14:50 063 2 gusting 5 4.9
2020-Jan-24 14:45 074 3 gusting 4 4.7
2020-Jan-24 14:40 079 2 gusting 4 4.6
2020-Jan-24 14:35 065 2 gusting 4 4.5
2020-Jan-24 14:30 068 2 gusting 4 4.2
2020-Jan-24 14:25 055 1 gusting 3 3.9
2020-Jan-24 14:20 048 0 gusting 2 3.9
2020-Jan-24 14:15 066 1 gusting 2 3.6
2020-Jan-24 14:10 068 1 gusting 2 3.3
2020-Jan-24 14:05 068 1 gusting 3 3.2
2020-Jan-24 14:00 058 1 gusting 2 2.9
2020-Jan-24 13:55 056 1 gusting 2 2.7
2020-Jan-24 13:50 073 1 gusting 2 2.6
2020-Jan-24 13:45 075 0 gusting 1 2.4
2020-Jan-24 13:40 039 0 gusting 1 2.1
2020-Jan-24 13:35 027 0 gusting 1 1.7
2020-Jan-24 13:30 003 0 gusting 0 1.3
2020-Jan-24 13:25 060 0 gusting 1 0.9
2020-Jan-24 13:20 061 0 gusting 1 0.5
2020-Jan-24 13:15 089 0 gusting 1 0.2
2020-Jan-24 13:10 094 0 gusting 1 0.1
2020-Jan-24 13:05 -0.0
2020-Jan-24 13:00 332 0 gusting 1 -0.0
2020-Jan-24 12:55 082 0 gusting 0 0.1
2020-Jan-24 12:50 060 0 gusting 1 0.1
2020-Jan-24 12:45 049 0 gusting 1 -0.2
2020-Jan-24 12:40 071 0 gusting 1 -0.5
2020-Jan-24 12:35 086 0 gusting 0 -0.7
2020-Jan-24 12:30 049 0 gusting 1 -1.2
2020-Jan-24 12:25 045 1 gusting 2 -1.3
2020-Jan-24 12:20 084 1 gusting 1 -1.0
2020-Jan-24 12:15 095 0 gusting 1 -0.5
2020-Jan-24 12:10 009 0 gusting 1 -0.3
2020-Jan-24 12:05 342 1 gusting 1 -0.3
2020-Jan-24 12:00 322 1 gusting 2 -0.7
2020-Jan-24 11:55 318 1 gusting 2 -1.2
2020-Jan-24 11:50 -1.4
2020-Jan-24 11:45 009 0 gusting 0 -1.1
2020-Jan-24 11:40 052 1 gusting 1 -1.3
2020-Jan-24 11:35 088 1 gusting 1 -1.2
2020-Jan-24 11:30 058 1 gusting 1 -1.2
2020-Jan-24 11:25 061 1 gusting 1 -1.2
2020-Jan-24 11:20 047 1 gusting 1 -1.3
2020-Jan-24 11:15 057 0 gusting 1 -1.3
2020-Jan-24 11:10 099 0 gusting 1 -1.2
2020-Jan-24 11:05 -1.2
2020-Jan-24 11:00 001 0 gusting 1 -1.0
2020-Jan-24 10:55 351 0 gusting 1 -1.4
2020-Jan-24 10:50 -1.7
2020-Jan-24 10:45 -1.8
2020-Jan-24 10:40 023 0 gusting 0 -1.4
2020-Jan-24 10:35 046 0 gusting 1 -1.6
2020-Jan-24 10:30 047 1 gusting 2 -1.8
2020-Jan-24 10:25 059 1 gusting 1 -1.8
2020-Jan-24 10:20 085 1 gusting 1 -2.1
2020-Jan-24 10:15 085 1 gusting 1 -1.9
2020-Jan-24 10:10 082 0 gusting 1 -2.0
2020-Jan-24 10:05 102 1 gusting 2 -2.1
2020-Jan-24 10:00 107 1 gusting 2 -2.1
2020-Jan-24 09:55 060 1 gusting 2 -2.0
2020-Jan-24 09:50 337 1 gusting 1 -2.5
2020-Jan-24 09:45 349 1 gusting 2 -1.3
2020-Jan-24 09:40 001 1 gusting 2 -1.3
2020-Jan-24 09:35 353 1 gusting 1 -1.9
2020-Jan-24 09:30 -2.4
2020-Jan-24 09:25 -2.4
2020-Jan-24 09:20 110 0 gusting 1 -2.2
2020-Jan-24 09:15 080 0 gusting 0 -2.3
2020-Jan-24 09:10 004 0 gusting 1 -2.0
2020-Jan-24 09:05 354 1 gusting 2 -1.9
2020-Jan-24 09:00 291 0 gusting 1 -2.1
2020-Jan-24 08:55 279 1 gusting 1 -2.3
2020-Jan-24 08:50 266 1 gusting 1 -2.4
2020-Jan-24 08:45 266 1 gusting 1 -2.3
2020-Jan-24 08:40 272 0 gusting 1 -2.1
2020-Jan-24 08:35 297 0 gusting 0 -2.0
2020-Jan-24 08:30 -2.0
2020-Jan-24 08:25 053 0 gusting 0 -1.9
2020-Jan-24 08:20 005 0 gusting 0 -1.7
2020-Jan-24 08:15 319 0 gusting 1 -1.7
2020-Jan-24 08:10 298 1 gusting 2 -1.6
2020-Jan-24 08:05 264 1 gusting 2 -1.9
2020-Jan-24 08:00 253 1 gusting 2 -1.9
2020-Jan-24 07:55 261 1 gusting 1 -1.7
2020-Jan-24 07:50 264 0 gusting 0 -1.6
2020-Jan-24 07:45 -1.6
2020-Jan-24 07:40 001 1 gusting 1 -1.6
2020-Jan-24 07:35 001 0 gusting 1 -1.6
2020-Jan-24 07:30 358 0 gusting 1 -1.4
2020-Jan-24 07:25 004 0 gusting 1 -0.8
2020-Jan-24 07:20 031 1 gusting 2 -0.6
2020-Jan-24 07:15 355 1 gusting 2 -0.8
2020-Jan-24 07:10 294 1 gusting 2 -1.3
2020-Jan-24 07:05 286 0 gusting 2 -1.6
2020-Jan-24 06:45 325 0 gusting 1 -1.5
2020-Jan-24 06:40 048 0 gusting 1 -1.2
2020-Jan-24 06:35 080 0 gusting 1 -1.3
2020-Jan-24 06:30 075 1 gusting 2 -1.5
2020-Jan-24 06:25 079 1 gusting 2 -1.7
2020-Jan-24 06:20 083 1 gusting 2 -1.5
2020-Jan-24 06:15 306 0 gusting 1 -1.6
2020-Jan-24 06:10 284 1 gusting 1 -1.5
2020-Jan-24 06:05 304 1 gusting 2 -1.4
2020-Jan-24 06:00 277 2 gusting 2 -1.4
2020-Jan-24 05:55 278 0 gusting 1 -1.4
2020-Jan-24 05:50 -1.5
2020-Jan-24 05:45 037 0 gusting 1 -1.0
2020-Jan-24 05:40 349 0 gusting 1 -1.0
2020-Jan-24 05:35 266 1 gusting 1 -1.1
2020-Jan-24 05:30 294 0 gusting 1 -0.7
2020-Jan-24 05:25 295 0 gusting 0 -0.7
2020-Jan-24 05:20 295 0 gusting 0 -0.9
2020-Jan-24 05:15 -1.0
2020-Jan-24 05:10 257 0 gusting 0 -0.9
2020-Jan-24 05:05 255 0 gusting 1 -0.6
2020-Jan-24 05:00 -0.8
2020-Jan-24 04:55 -1.0
2020-Jan-24 04:50 264 0 gusting 0 -0.9
2020-Jan-24 04:45 264 0 gusting 0 -0.8
2020-Jan-24 04:40 -0.7
2020-Jan-24 04:35 -0.6
2020-Jan-24 04:30 -0.6
2020-Jan-24 04:25 -0.5
2020-Jan-24 04:20 -0.5
2020-Jan-24 04:15 264 0 gusting 0 -0.5
2020-Jan-24 04:10 265 0 gusting 1 -0.5
2020-Jan-24 04:05 073 0 gusting 1 -0.6
2020-Jan-24 04:00 -0.6
2020-Jan-24 03:55 073 0 gusting 0 -0.5
2020-Jan-24 03:50 073 0 gusting 0 -0.5
2020-Jan-24 03:45 301 0 gusting 0 -0.4
2020-Jan-24 03:40 294 1 gusting 2 -0.3
2020-Jan-24 03:35 310 1 gusting 2 -0.1
2020-Jan-24 03:30 299 1 gusting 2 -0.3
2020-Jan-24 03:25 290 1 gusting 1 -0.3
2020-Jan-24 03:20 290 1 gusting 1 -0.3
2020-Jan-24 03:15 307 1 gusting 1 -0.1
2020-Jan-24 03:10 347 1 gusting 1 -0.2
2020-Jan-24 03:05 009 0 gusting 1 -0.2
2020-Jan-24 03:00 -0.4
2020-Jan-24 02:55 -0.3
2020-Jan-24 02:50 102 0 gusting 0 -0.1
2020-Jan-24 02:45 102 0 gusting 0 0.0
2020-Jan-24 02:40 102 0 gusting 0 0.1
2020-Jan-24 02:35 0.0
2020-Jan-24 02:30 103 0 gusting 1 0.0
2020-Jan-24 02:25 103 0 gusting 1 -0.1
2020-Jan-24 02:20 0.0
2020-Jan-24 02:15 145 0 gusting 0 0.1
2020-Jan-24 02:10 145 0 gusting 0 0.2
2020-Jan-24 02:05 145 0 gusting 1 0.3
2020-Jan-24 02:00 145 0 gusting 1 0.4
2020-Jan-24 01:55 0.3
2020-Jan-24 01:50 061 0 gusting 0 0.4
2020-Jan-24 01:45 059 0 gusting 1 0.3
2020-Jan-24 01:40 188 0 gusting 1 0.0
2020-Jan-24 01:35 188 1 gusting 2 0.0
2020-Jan-24 01:30 204 0 gusting 1 0.0
2020-Jan-24 01:25 0.1
2020-Jan-24 01:20 297 0 gusting 1 0.3
2020-Jan-24 01:15 298 1 gusting 1 0.1
2020-Jan-24 01:10 284 1 gusting 1 -0.1
2020-Jan-24 01:05 289 1 gusting 1 0.3
2020-Jan-24 01:00 345 0 gusting 1 0.5
2020-Jan-24 00:55 0.6
2020-Jan-24 00:50 0.8
2020-Jan-24 00:45 269 0 gusting 1 0.6
2020-Jan-24 00:40 263 0 gusting 1 0.5
2020-Jan-24 00:35 0.5
2020-Jan-24 00:30 153 0 gusting 0 0.7
2020-Jan-24 00:25 159 0 gusting 1 0.8
2020-Jan-24 00:20 274 1 gusting 1 0.8
2020-Jan-24 00:15 274 0 gusting 1 0.8
2020-Jan-24 00:10 1.1
2020-Jan-24 00:05 1.2
2020-Jan-24 00:00 1.3
2020-Jan-23 23:55 1.4
2020-Jan-23 23:50 152 0 gusting 0 1.4
2020-Jan-23 23:45 1.2
2020-Jan-23 23:40 130 0 gusting 0 1.5
2020-Jan-23 23:35 120 1 gusting 1 1.6
2020-Jan-23 23:30 137 0 gusting 1 1.8
2020-Jan-23 23:25 120 0 gusting 0 2.3
2020-Jan-23 23:20 121 0 gusting 1 2.5
2020-Jan-23 23:15 127 0 gusting 0 2.4
2020-Jan-23 23:10 270 0 gusting 0 2.3
2020-Jan-23 23:05 270 0 gusting 0 2.6
2020-Jan-23 23:00 3.1
2020-Jan-23 22:55 3.2
2020-Jan-23 22:50 270 0 gusting 0 3.2
2020-Jan-23 22:45 270 0 gusting 0 3.2
2020-Jan-23 22:40 270 0 gusting 0 3.3
2020-Jan-23 22:35 271 0 gusting 0 3.3
2020-Jan-23 22:30 3.5
2020-Jan-23 22:25 3.6
2020-Jan-23 22:20 3.7
2020-Jan-23 22:15 3.7
2020-Jan-23 22:10 3.9
2020-Jan-23 22:05 3.9
2020-Jan-23 22:00 4.1
2020-Jan-23 21:55 4.3
2020-Jan-23 21:50 4.5
2020-Jan-23 21:45 4.6
2020-Jan-23 21:40 4.8
2020-Jan-23 21:35 4.9
2020-Jan-23 21:30 5.0
2020-Jan-23 21:25 5.1
2020-Jan-23 21:20 5.2
2020-Jan-23 21:15 5.3
2020-Jan-23 21:10 5.3
2020-Jan-23 21:05 5.3
2020-Jan-23 21:00 5.3
2020-Jan-23 20:55 177 0 gusting 1 5.3
2020-Jan-23 20:50 198 1 gusting 2 5.3
2020-Jan-23 20:45 190 0 gusting 1 5.3
2020-Jan-23 20:40 089 0 gusting 1 5.3
2020-Jan-23 20:35 096 0 gusting 1 5.3
2020-Jan-23 20:30 075 0 gusting 1 5.3
2020-Jan-23 20:25 093 1 gusting 2 5.2
2020-Jan-23 20:20 088 0 gusting 1 5.2
2020-Jan-23 20:15 087 1 gusting 2 5.2
2020-Jan-23 20:10 104 1 gusting 2 5.2
2020-Jan-23 20:05 096 0 gusting 1 5.2
2020-Jan-23 20:00 091 1 gusting 1 5.2
2020-Jan-23 19:55 100 1 gusting 2 5.1
2020-Jan-23 19:50 095 1 gusting 2 5.1
2020-Jan-23 19:45 095 2 gusting 2 5.1
2020-Jan-23 19:40 101 1 gusting 2 5.1
2020-Jan-23 19:35 081 2 gusting 3 5.1
2020-Jan-23 19:30 094 2 gusting 3 5.1
2020-Jan-23 19:25 094 3 gusting 3 5.0
2020-Jan-23 19:20 094 2 gusting 3 5.1
2020-Jan-23 19:15 104 2 gusting 3 5.1
2020-Jan-23 19:10 110 1 gusting 2 5.1
2020-Jan-23 19:05 105 2 gusting 3 5.1
2020-Jan-23 19:00 101 2 gusting 3 5.4
2020-Jan-23 18:55 105 1 gusting 3 5.5
2020-Jan-23 18:50 114 0 gusting 2 5.5
2020-Jan-23 18:45 111 0 gusting 1 5.2
2020-Jan-23 18:40 116 1 gusting 2 5.2
2020-Jan-23 18:35 104 0 gusting 2 5.1
2020-Jan-23 18:30 107 1 gusting 2 5.0
2020-Jan-23 18:25 111 1 gusting 2 4.9
2020-Jan-23 18:20 114 2 gusting 4 4.9
2020-Jan-23 18:15 113 1 gusting 3 5.0
2020-Jan-23 18:10 095 2 gusting 4 4.8
2020-Jan-23 18:05 095 3 gusting 5 4.8
2020-Jan-23 18:00 100 3 gusting 5 4.6
2020-Jan-23 17:55 104 3 gusting 5 4.7
2020-Jan-23 17:50 103 3 gusting 4 4.7
2020-Jan-23 17:45 103 3 gusting 4 4.7
2020-Jan-23 17:40 105 3 gusting 5 4.8
2020-Jan-23 17:35 090 2 gusting 5 5.1
2020-Jan-23 17:30 282 0 gusting 2 4.9
2020-Jan-23 17:25 087 1 gusting 3 4.3
2020-Jan-23 17:20 111 3 gusting 4 4.2
2020-Jan-23 17:15 070 1 gusting 3 4.1
2020-Jan-23 17:10 082 2 gusting 4 3.9
2020-Jan-23 17:05 032 2 gusting 4 3.9
2020-Jan-23 17:00 032 1 gusting 3 3.7
2020-Jan-23 16:55 042 1 gusting 3 3.5
2020-Jan-23 16:50 020 1 gusting 2 3.7
2020-Jan-23 16:45 079 2 gusting 4 3.4
2020-Jan-23 16:40 054 1 gusting 3 3.4
2020-Jan-23 16:35 041 1 gusting 3 3.3
2020-Jan-23 16:30 099 3 gusting 4 3.0
2020-Jan-23 16:25 100 3 gusting 4 2.9
2020-Jan-23 16:20 099 3 gusting 3 2.8
2020-Jan-23 16:15 110 3 gusting 4 2.9
2020-Jan-23 16:10 083 2 gusting 3 3.0
2020-Jan-23 16:05 101 1 gusting 3 2.9
2020-Jan-23 16:00 069 1 gusting 3 2.8
2020-Jan-23 15:55 075 2 gusting 5 2.7
2020-Jan-23 15:50 066 1 gusting 3 2.8
2020-Jan-23 15:45 064 2 gusting 3 2.6
2020-Jan-23 15:40 083 2 gusting 3 2.8
2020-Jan-23 15:35 061 2 gusting 3 2.4
2020-Jan-23 15:30 348 2 gusting 4 2.3
2020-Jan-23 15:25 038 1 gusting 2 2.1
2020-Jan-23 15:20 050 2 gusting 3 2.0
2020-Jan-23 15:15 055 2 gusting 4 1.8
2020-Jan-23 15:10 070 2 gusting 4 1.6
2020-Jan-23 15:05 032 2 gusting 3 1.6
2020-Jan-23 15:00 033 1 gusting 3 1.5
2020-Jan-23 14:55 086 1 gusting 2 1.4
2020-Jan-23 14:50 073 2 gusting 3 1.2
2020-Jan-23 14:45 108 1 gusting 1 1.0
2020-Jan-23 14:40 089 1 gusting 2 0.7
2020-Jan-23 14:35 044 1 gusting 1 0.3
2020-Jan-23 14:30 081 2 gusting 2 0.2
2020-Jan-23 14:25 101 1 gusting 2 0.1
2020-Jan-23 14:20 109 1 gusting 2 -0.1
2020-Jan-23 14:15 105 0 gusting 1 -0.1
2020-Jan-23 14:10 110 0 gusting 1 -0.4
2020-Jan-23 14:05 129 0 gusting 1 -0.7
2020-Jan-23 14:00 121 0 gusting 1 -0.9
2020-Jan-23 13:55 200 0 gusting 0 -1.0
2020-Jan-23 13:50 230 0 gusting 0 -1.6
2020-Jan-23 13:45 291 0 gusting 0 -2.0
2020-Jan-23 13:40 295 0 gusting 0 -2.3
2020-Jan-23 13:35 035 0 gusting 0 -2.9
2020-Jan-23 13:30 232 0 gusting 1 -3.3
2020-Jan-23 13:25 224 0 gusting 0 -3.3
2020-Jan-23 13:20 -3.6
2020-Jan-23 13:15 -4.2
2020-Jan-23 13:10 -4.5
2020-Jan-23 13:05 -4.9
2020-Jan-23 13:00 224 0 gusting 0 -5.1
2020-Jan-23 12:55 225 0 gusting 1 -5.5
2020-Jan-23 12:50 235 1 gusting 1 -5.7
2020-Jan-23 12:45 245 0 gusting 0 -5.8
2020-Jan-23 12:40 244 0 gusting 0 -6.0
2020-Jan-23 12:35 244 0 gusting 0 -5.9
2020-Jan-23 12:30 -5.9
2020-Jan-23 12:25 -5.9
2020-Jan-23 12:20 -6.0
2020-Jan-23 12:15 244 0 gusting 0 -6.2
2020-Jan-23 12:10 245 0 gusting 1 -6.0
2020-Jan-23 12:05 244 1 gusting 1 -6.0
2020-Jan-23 12:00 244 1 gusting 1 -6.3